sensor_id;sensor_type;location;lat;lon;timestamp;temperature;humidity
20057;DHT22;10189;49.546;7.906;2023-12-29T00:01:48;7.60;99.90
20057;DHT22;10189;49.546;7.906;2023-12-29T00:04:14;7.60;99.90
20057;DHT22;10189;49.546;7.906;2023-12-29T00:06:40;7.50;99.90
20057;DHT22;10189;49.546;7.906;2023-12-29T00:09:07;7.50;99.90
20057;DHT22;10189;49.546;7.906;2023-12-29T00:11:33;7.50;99.90
20057;DHT22;10189;49.546;7.906;2023-12-29T00:13:59;7.50;99.90
20057;DHT22;10189;49.546;7.906;2023-12-29T00:16:27;7.40;99.90
20057;DHT22;10189;49.546;7.906;2023-12-29T00:18:53;7.40;99.90
20057;DHT22;10189;49.546;7.906;2023-12-29T00:21:19;7.40;99.90
20057;DHT22;10189;49.546;7.906;2023-12-29T00:23:45;7.30;99.90
20057;DHT22;10189;49.546;7.906;2023-12-29T00:26:10;7.30;99.90
20057;DHT22;10189;49.546;7.906;2023-12-29T00:28:37;7.40;99.90
20057;DHT22;10189;49.546;7.906;2023-12-29T00:31:06;7.50;99.90
20057;DHT22;10189;49.546;7.906;2023-12-29T00:33:32;7.50;99.90
20057;DHT22;10189;49.546;7.906;2023-12-29T00:35:58;7.50;99.90
20057;DHT22;10189;49.546;7.906;2023-12-29T00:38:27;7.50;99.90
20057;DHT22;10189;49.546;7.906;2023-12-29T00:40:54;7.60;99.90
20057;DHT22;10189;49.546;7.906;2023-12-29T00:43:20;7.60;99.90
20057;DHT22;10189;49.546;7.906;2023-12-29T00:45:47;7.60;99.90
20057;DHT22;10189;49.546;7.906;2023-12-29T00:48:14;7.50;99.90
20057;DHT22;10189;49.546;7.906;2023-12-29T00:50:40;7.50;99.90
20057;DHT22;10189;49.546;7.906;2023-12-29T00:53:06;7.50;99.90
20057;DHT22;10189;49.546;7.906;2023-12-29T00:55:31;7.40;99.90
20057;DHT22;10189;49.546;7.906;2023-12-29T00:57:57;7.40;99.90
20057;DHT22;10189;49.546;7.906;2023-12-29T01:00:23;7.30;99.90
20057;DHT22;10189;49.546;7.906;2023-12-29T01:02:49;7.30;99.90
20057;DHT22;10189;49.546;7.906;2023-12-29T01:05:15;7.30;99.90
20057;DHT22;10189;49.546;7.906;2023-12-29T01:07:42;7.30;99.90
20057;DHT22;10189;49.546;7.906;2023-12-29T01:10:09;7.30;99.90
20057;DHT22;10189;49.546;7.906;2023-12-29T01:12:35;7.30;99.90
20057;DHT22;10189;49.546;7.906;2023-12-29T01:15:01;7.30;99.90
20057;DHT22;10189;49.546;7.906;2023-12-29T01:17:26;7.30;99.90
20057;DHT22;10189;49.546;7.906;2023-12-29T01:19:54;7.30;99.90
20057;DHT22;10189;49.546;7.906;2023-12-29T01:22:21;7.30;99.90
20057;DHT22;10189;49.546;7.906;2023-12-29T01:24:47;7.30;99.90
20057;DHT22;10189;49.546;7.906;2023-12-29T01:27:13;7.30;99.90
20057;DHT22;10189;49.546;7.906;2023-12-29T01:29:39;7.30;99.90
20057;DHT22;10189;49.546;7.906;2023-12-29T01:32:06;7.30;99.90
20057;DHT22;10189;49.546;7.906;2023-12-29T01:34:34;7.30;99.90
20057;DHT22;10189;49.546;7.906;2023-12-29T01:37:02;7.30;99.90
20057;DHT22;10189;49.546;7.906;2023-12-29T01:39:30;7.30;99.90
20057;DHT22;10189;49.546;7.906;2023-12-29T01:41:56;7.30;99.90
20057;DHT22;10189;49.546;7.906;2023-12-29T01:44:22;7.20;99.90
20057;DHT22;10189;49.546;7.906;2023-12-29T01:46:55;7.20;99.90
20057;DHT22;10189;49.546;7.906;2023-12-29T01:49:22;7.20;99.90
20057;DHT22;10189;49.546;7.906;2023-12-29T01:51:55;7.30;99.90
20057;DHT22;10189;49.546;7.906;2023-12-29T01:54:25;7.30;99.90
20057;DHT22;10189;49.546;7.906;2023-12-29T01:56:54;7.20;99.90
20057;DHT22;10189;49.546;7.906;2023-12-29T01:59:25;7.20;99.90
20057;DHT22;10189;49.546;7.906;2023-12-29T02:01:51;7.20;99.90
20057;DHT22;10189;49.546;7.906;2023-12-29T02:04:17;7.20;99.90
20057;DHT22;10189;49.546;7.906;2023-12-29T02:06:44;7.20;99.90
20057;DHT22;10189;49.546;7.906;2023-12-29T02:09:11;7.20;99.90
20057;DHT22;10189;49.546;7.906;2023-12-29T02:11:38;7.30;99.90
20057;DHT22;10189;49.546;7.906;2023-12-29T02:14:04;7.30;99.90
20057;DHT22;10189;49.546;7.906;2023-12-29T02:19:40;7.20;99.90
20057;DHT22;10189;49.546;7.906;2023-12-29T02:22:10;7.30;99.90
20057;DHT22;10189;49.546;7.906;2023-12-29T02:24:38;7.40;99.90
20057;DHT22;10189;49.546;7.906;2023-12-29T02:27:20;7.40;99.90
20057;DHT22;10189;49.546;7.906;2023-12-29T02:32:48;7.40;99.90
20057;DHT22;10189;49.546;7.906;2023-12-29T02:35:32;7.40;99.90
20057;DHT22;10189;49.546;7.906;2023-12-29T02:38:02;7.40;99.90
20057;DHT22;10189;49.546;7.906;2023-12-29T02:40:29;7.40;99.90
20057;DHT22;10189;49.546;7.906;2023-12-29T02:42:55;7.40;99.90
20057;DHT22;10189;49.546;7.906;2023-12-29T02:45:21;7.50;99.90
20057;DHT22;10189;49.546;7.906;2023-12-29T02:47:48;7.40;99.90
20057;DHT22;10189;49.546;7.906;2023-12-29T02:50:14;7.30;99.90
20057;DHT22;10189;49.546;7.906;2023-12-29T02:52:40;7.30;99.90
20057;DHT22;10189;49.546;7.906;2023-12-29T02:55:07;7.20;99.90
20057;DHT22;10189;49.546;7.906;2023-12-29T02:57:33;7.20;99.90
20057;DHT22;10189;49.546;7.906;2023-12-29T03:00:00;7.20;99.90
20057;DHT22;10189;49.546;7.906;2023-12-29T03:02:27;7.20;99.90
20057;DHT22;10189;49.546;7.906;2023-12-29T03:04:52;7.30;99.90
20057;DHT22;10189;49.546;7.906;2023-12-29T03:07:18;7.30;99.90
20057;DHT22;10189;49.546;7.906;2023-12-29T03:09:44;7.30;99.90
20057;DHT22;10189;49.546;7.906;2023-12-29T03:12:10;7.30;99.90
20057;DHT22;10189;49.546;7.906;2023-12-29T03:14:36;7.40;99.90
20057;DHT22;10189;49.546;7.906;2023-12-29T03:17:02;7.40;99.90
20057;DHT22;10189;49.546;7.906;2023-12-29T03:19:28;7.40;99.90
20057;DHT22;10189;49.546;7.906;2023-12-29T03:21:54;7.40;99.90
20057;DHT22;10189;49.546;7.906;2023-12-29T03:24:20;7.50;99.90
20057;DHT22;10189;49.546;7.906;2023-12-29T03:26:48;7.50;99.90
20057;DHT22;10189;49.546;7.906;2023-12-29T03:29:14;7.50;99.90
20057;DHT22;10189;49.546;7.906;2023-12-29T03:31:39;7.50;99.90
20057;DHT22;10189;49.546;7.906;2023-12-29T03:34:05;7.50;99.90
20057;DHT22;10189;49.546;7.906;2023-12-29T03:36:32;7.60;99.90
20057;DHT22;10189;49.546;7.906;2023-12-29T03:38:58;7.50;99.90
20057;DHT22;10189;49.546;7.906;2023-12-29T03:41:24;7.50;99.90
20057;DHT22;10189;49.546;7.906;2023-12-29T03:43:50;7.50;99.90
20057;DHT22;10189;49.546;7.906;2023-12-29T03:46:20;7.60;99.90
20057;DHT22;10189;49.546;7.906;2023-12-29T03:48:47;7.50;99.90
20057;DHT22;10189;49.546;7.906;2023-12-29T03:51:15;7.50;99.90
20057;DHT22;10189;49.546;7.906;2023-12-29T03:53:43;7.50;99.90
20057;DHT22;10189;49.546;7.906;2023-12-29T03:56:18;7.50;99.90
20057;DHT22;10189;49.546;7.906;2023-12-29T03:58:45;7.40;99.90
20057;DHT22;10189;49.546;7.906;2023-12-29T04:01:13;7.30;99.90
20057;DHT22;10189;49.546;7.906;2023-12-29T04:03:40;7.30;99.90
20057;DHT22;10189;49.546;7.906;2023-12-29T04:06:07;7.30;99.90
20057;DHT22;10189;49.546;7.906;2023-12-29T04:08:34;7.30;99.90
20057;DHT22;10189;49.546;7.906;2023-12-29T04:11:00;7.30;99.90
20057;DHT22;10189;49.546;7.906;2023-12-29T04:13:27;7.20;99.90
20057;DHT22;10189;49.546;7.906;2023-12-29T04:15:53;7.20;99.90
20057;DHT22;10189;49.546;7.906;2023-12-29T04:18:23;7.20;99.90
20057;DHT22;10189;49.546;7.906;2023-12-29T04:20:50;7.20;99.90
20057;DHT22;10189;49.546;7.906;2023-12-29T04:23:16;7.20;99.90
20057;DHT22;10189;49.546;7.906;2023-12-29T04:25:42;7.10;99.90
20057;DHT22;10189;49.546;7.906;2023-12-29T04:28:08;7.10;99.90
20057;DHT22;10189;49.546;7.906;2023-12-29T04:30:34;7.10;99.90
20057;DHT22;10189;49.546;7.906;2023-12-29T04:33:00;7.10;99.90
20057;DHT22;10189;49.546;7.906;2023-12-29T04:35:26;7.10;99.90
20057;DHT22;10189;49.546;7.906;2023-12-29T04:37:52;7.00;99.90
20057;DHT22;10189;49.546;7.906;2023-12-29T04:40:18;7.10;99.90
20057;DHT22;10189;49.546;7.906;2023-12-29T04:42:45;7.20;99.90
20057;DHT22;10189;49.546;7.906;2023-12-29T04:45:11;7.20;99.90
20057;DHT22;10189;49.546;7.906;2023-12-29T04:47:37;7.30;99.90
20057;DHT22;10189;49.546;7.906;2023-12-29T04:50:04;7.30;99.90
20057;DHT22;10189;49.546;7.906;2023-12-29T04:52:31;7.30;99.90
20057;DHT22;10189;49.546;7.906;2023-12-29T04:54:57;7.40;99.90
20057;DHT22;10189;49.546;7.906;2023-12-29T04:57:23;7.40;99.90
20057;DHT22;10189;49.546;7.906;2023-12-29T04:59:49;7.50;99.90
20057;DHT22;10189;49.546;7.906;2023-12-29T05:02:15;7.50;99.90
20057;DHT22;10189;49.546;7.906;2023-12-29T05:04:41;7.50;99.90
20057;DHT22;10189;49.546;7.906;2023-12-29T05:07:08;7.50;99.90
20057;DHT22;10189;49.546;7.906;2023-12-29T05:09:35;7.50;99.90
20057;DHT22;10189;49.546;7.906;2023-12-29T05:12:01;7.50;99.90
20057;DHT22;10189;49.546;7.906;2023-12-29T05:14:27;7.40;99.90
20057;DHT22;10189;49.546;7.906;2023-12-29T05:16:53;7.30;99.90
20057;DHT22;10189;49.546;7.906;2023-12-29T05:19:19;7.40;99.90
20057;DHT22;10189;49.546;7.906;2023-12-29T05:21:45;7.40;99.90
20057;DHT22;10189;49.546;7.906;2023-12-29T05:24:11;7.50;99.90
20057;DHT22;10189;49.546;7.906;2023-12-29T05:26:37;7.60;99.90
20057;DHT22;10189;49.546;7.906;2023-12-29T05:29:03;7.60;99.90
20057;DHT22;10189;49.546;7.906;2023-12-29T05:31:29;7.60;99.90
20057;DHT22;10189;49.546;7.906;2023-12-29T05:33:56;7.60;99.90
20057;DHT22;10189;49.546;7.906;2023-12-29T05:36:22;7.60;99.90
20057;DHT22;10189;49.546;7.906;2023-12-29T05:38:48;7.70;99.90
20057;DHT22;10189;49.546;7.906;2023-12-29T05:41:14;7.70;99.90
20057;DHT22;10189;49.546;7.906;2023-12-29T05:43:40;7.70;99.90
20057;DHT22;10189;49.546;7.906;2023-12-29T05:46:12;7.70;99.90
20057;DHT22;10189;49.546;7.906;2023-12-29T05:48:39;7.70;99.90
20057;DHT22;10189;49.546;7.906;2023-12-29T05:51:09;7.70;99.90
20057;DHT22;10189;49.546;7.906;2023-12-29T05:53:36;7.70;99.90
20057;DHT22;10189;49.546;7.906;2023-12-29T05:56:02;7.70;99.90
20057;DHT22;10189;49.546;7.906;2023-12-29T05:58:30;7.70;99.90
20057;DHT22;10189;49.546;7.906;2023-12-29T06:00:55;7.70;99.90
20057;DHT22;10189;49.546;7.906;2023-12-29T06:03:21;7.70;99.90
20057;DHT22;10189;49.546;7.906;2023-12-29T06:05:48;7.70;99.90
20057;DHT22;10189;49.546;7.906;2023-12-29T06:08:14;7.70;99.90
20057;DHT22;10189;49.546;7.906;2023-12-29T06:10:40;7.70;99.90
20057;DHT22;10189;49.546;7.906;2023-12-29T06:13:06;7.60;99.90
20057;DHT22;10189;49.546;7.906;2023-12-29T06:15:32;7.60;99.90
20057;DHT22;10189;49.546;7.906;2023-12-29T06:17:58;7.70;99.90
20057;DHT22;10189;49.546;7.906;2023-12-29T06:20:25;7.70;99.90
20057;DHT22;10189;49.546;7.906;2023-12-29T06:22:51;7.70;99.90
20057;DHT22;10189;49.546;7.906;2023-12-29T06:25:17;7.70;99.90
20057;DHT22;10189;49.546;7.906;2023-12-29T06:27:43;7.80;99.90
20057;DHT22;10189;49.546;7.906;2023-12-29T06:30:09;7.70;99.90
20057;DHT22;10189;49.546;7.906;2023-12-29T06:32:38;7.70;99.90
20057;DHT22;10189;49.546;7.906;2023-12-29T06:35:05;7.80;99.90
20057;DHT22;10189;49.546;7.906;2023-12-29T06:37:32;7.80;99.90
20057;DHT22;10189;49.546;7.906;2023-12-29T06:39:58;7.80;99.90
20057;DHT22;10189;49.546;7.906;2023-12-29T06:42:25;7.70;99.90
20057;DHT22;10189;49.546;7.906;2023-12-29T06:44:50;7.80;99.90
20057;DHT22;10189;49.546;7.906;2023-12-29T06:47:16;7.80;99.90
20057;DHT22;10189;49.546;7.906;2023-12-29T06:49:42;7.70;99.90
20057;DHT22;10189;49.546;7.906;2023-12-29T06:52:08;7.70;99.90
20057;DHT22;10189;49.546;7.906;2023-12-29T06:54:34;7.80;99.90
20057;DHT22;10189;49.546;7.906;2023-12-29T06:57:00;7.80;99.90
20057;DHT22;10189;49.546;7.906;2023-12-29T06:59:26;7.70;99.90
20057;DHT22;10189;49.546;7.906;2023-12-29T07:01:52;7.70;99.90
20057;DHT22;10189;49.546;7.906;2023-12-29T07:04:18;7.70;99.90
20057;DHT22;10189;49.546;7.906;2023-12-29T07:06:44;7.70;99.90
20057;DHT22;10189;49.546;7.906;2023-12-29T07:09:10;7.70;99.90
20057;DHT22;10189;49.546;7.906;2023-12-29T07:11:36;7.70;99.90
20057;DHT22;10189;49.546;7.906;2023-12-29T07:14:02;7.70;99.90
20057;DHT22;10189;49.546;7.906;2023-12-29T07:16:29;7.70;99.90
20057;DHT22;10189;49.546;7.906;2023-12-29T07:18:55;7.70;99.90
20057;DHT22;10189;49.546;7.906;2023-12-29T07:21:21;7.70;99.90
20057;DHT22;10189;49.546;7.906;2023-12-29T07:23:47;7.70;99.90
20057;DHT22;10189;49.546;7.906;2023-12-29T07:26:13;7.70;99.90
20057;DHT22;10189;49.546;7.906;2023-12-29T07:28:38;7.70;99.90
20057;DHT22;10189;49.546;7.906;2023-12-29T07:31:05;7.80;99.90
20057;DHT22;10189;49.546;7.906;2023-12-29T07:33:31;7.80;99.90
20057;DHT22;10189;49.546;7.906;2023-12-29T07:35:56;7.70;99.90
20057;DHT22;10189;49.546;7.906;2023-12-29T07:38:23;7.70;99.90
20057;DHT22;10189;49.546;7.906;2023-12-29T07:40:49;7.80;99.90
20057;DHT22;10189;49.546;7.906;2023-12-29T07:43:15;7.70;99.90
20057;DHT22;10189;49.546;7.906;2023-12-29T07:45:41;7.70;99.90
20057;DHT22;10189;49.546;7.906;2023-12-29T07:48:09;7.70;99.90
20057;DHT22;10189;49.546;7.906;2023-12-29T07:50:34;7.70;99.90
20057;DHT22;10189;49.546;7.906;2023-12-29T07:53:00;7.70;99.90
20057;DHT22;10189;49.546;7.906;2023-12-29T07:55:29;7.80;99.90
20057;DHT22;10189;49.546;7.906;2023-12-29T07:57:56;7.80;99.90
20057;DHT22;10189;49.546;7.906;2023-12-29T08:00:22;7.80;99.90
20057;DHT22;10189;49.546;7.906;2023-12-29T08:02:49;7.80;99.90
20057;DHT22;10189;49.546;7.906;2023-12-29T08:05:15;7.80;99.90
20057;DHT22;10189;49.546;7.906;2023-12-29T08:07:42;7.80;99.90
20057;DHT22;10189;49.546;7.906;2023-12-29T08:10:09;7.80;99.90
20057;DHT22;10189;49.546;7.906;2023-12-29T08:12:35;7.90;99.90
20057;DHT22;10189;49.546;7.906;2023-12-29T08:15:04;7.80;99.90
20057;DHT22;10189;49.546;7.906;2023-12-29T08:17:32;7.90;99.90
20057;DHT22;10189;49.546;7.906;2023-12-29T08:19:58;8.00;99.90
20057;DHT22;10189;49.546;7.906;2023-12-29T08:22:24;8.00;99.90
20057;DHT22;10189;49.546;7.906;2023-12-29T08:24:49;8.00;99.90
20057;DHT22;10189;49.546;7.906;2023-12-29T08:27:23;8.00;99.90
20057;DHT22;10189;49.546;7.906;2023-12-29T08:29:51;8.00;99.90
20057;DHT22;10189;49.546;7.906;2023-12-29T08:32:17;8.00;99.90
20057;DHT22;10189;49.546;7.906;2023-12-29T08:34:43;8.00;99.90
20057;DHT22;10189;49.546;7.906;2023-12-29T08:37:09;8.00;99.90
20057;DHT22;10189;49.546;7.906;2023-12-29T08:39:35;8.10;99.90
20057;DHT22;10189;49.546;7.906;2023-12-29T08:42:00;8.10;99.90
20057;DHT22;10189;49.546;7.906;2023-12-29T08:44:27;8.10;99.90
20057;DHT22;10189;49.546;7.906;2023-12-29T08:46:53;8.10;99.90
20057;DHT22;10189;49.546;7.906;2023-12-29T08:49:19;8.10;99.90
20057;DHT22;10189;49.546;7.906;2023-12-29T08:51:45;8.10;99.90
20057;DHT22;10189;49.546;7.906;2023-12-29T08:54:11;8.10;99.90
20057;DHT22;10189;49.546;7.906;2023-12-29T08:56:37;8.10;99.90
20057;DHT22;10189;49.546;7.906;2023-12-29T08:59:03;8.10;99.90
20057;DHT22;10189;49.546;7.906;2023-12-29T09:01:28;8.10;99.90
20057;DHT22;10189;49.546;7.906;2023-12-29T09:03:54;8.10;99.90
20057;DHT22;10189;49.546;7.906;2023-12-29T09:06:20;8.20;99.90
20057;DHT22;10189;49.546;7.906;2023-12-29T09:08:46;8.20;99.90
20057;DHT22;10189;49.546;7.906;2023-12-29T09:11:12;8.20;99.90
20057;DHT22;10189;49.546;7.906;2023-12-29T09:13:37;8.20;99.90
20057;DHT22;10189;49.546;7.906;2023-12-29T09:16:03;8.20;99.90
20057;DHT22;10189;49.546;7.906;2023-12-29T09:18:30;8.20;99.90
20057;DHT22;10189;49.546;7.906;2023-12-29T09:20:55;8.30;99.90
20057;DHT22;10189;49.546;7.906;2023-12-29T09:23:21;8.30;99.90
20057;DHT22;10189;49.546;7.906;2023-12-29T09:25:47;8.20;99.90
20057;DHT22;10189;49.546;7.906;2023-12-29T09:28:13;8.20;99.90
20057;DHT22;10189;49.546;7.906;2023-12-29T09:30:39;8.20;99.90
20057;DHT22;10189;49.546;7.906;2023-12-29T09:33:05;8.20;99.90
20057;DHT22;10189;49.546;7.906;2023-12-29T09:35:30;8.20;99.90
20057;DHT22;10189;49.546;7.906;2023-12-29T09:37:57;8.30;99.90
20057;DHT22;10189;49.546;7.906;2023-12-29T09:40:25;8.20;99.90
20057;DHT22;10189;49.546;7.906;2023-12-29T09:42:52;8.30;99.90
20057;DHT22;10189;49.546;7.906;2023-12-29T09:45:23;8.30;99.90
20057;DHT22;10189;49.546;7.906;2023-12-29T09:47:52;8.30;99.90
20057;DHT22;10189;49.546;7.906;2023-12-29T09:50:21;8.30;99.90
20057;DHT22;10189;49.546;7.906;2023-12-29T09:52:48;8.30;99.90
20057;DHT22;10189;49.546;7.906;2023-12-29T09:55:18;8.40;99.90
20057;DHT22;10189;49.546;7.906;2023-12-29T09:57:47;8.40;99.90
20057;DHT22;10189;49.546;7.906;2023-12-29T10:00:16;8.50;99.90
20057;DHT22;10189;49.546;7.906;2023-12-29T10:02:44;8.50;99.90
20057;DHT22;10189;49.546;7.906;2023-12-29T10:05:09;8.50;99.90
20057;DHT22;10189;49.546;7.906;2023-12-29T10:07:36;8.50;99.90
20057;DHT22;10189;49.546;7.906;2023-12-29T10:10:05;8.50;99.90
20057;DHT22;10189;49.546;7.906;2023-12-29T10:12:32;8.60;99.90
20057;DHT22;10189;49.546;7.906;2023-12-29T10:15:21;8.60;99.90
20057;DHT22;10189;49.546;7.906;2023-12-29T10:18:07;8.60;99.90
20057;DHT22;10189;49.546;7.906;2023-12-29T10:20:55;8.60;99.90
20057;DHT22;10189;49.546;7.906;2023-12-29T10:23:40;8.60;99.90
20057;DHT22;10189;49.546;7.906;2023-12-29T10:26:11;8.60;99.90
20057;DHT22;10189;49.546;7.906;2023-12-29T10:28:37;8.60;99.90
20057;DHT22;10189;49.546;7.906;2023-12-29T10:31:04;8.60;99.90
20057;DHT22;10189;49.546;7.906;2023-12-29T10:33:30;8.60;99.90
20057;DHT22;10189;49.546;7.906;2023-12-29T10:35:59;8.60;99.90
20057;DHT22;10189;49.546;7.906;2023-12-29T10:38:29;8.60;99.90
20057;DHT22;10189;49.546;7.906;2023-12-29T10:41:12;8.70;99.30
20057;DHT22;10189;49.546;7.906;2023-12-29T10:43:40;8.80;99.50
20057;DHT22;10189;49.546;7.906;2023-12-29T10:46:08;8.90;99.00
20057;DHT22;10189;49.546;7.906;2023-12-29T10:48:36;8.90;98.90
20057;DHT22;10189;49.546;7.906;2023-12-29T10:51:03;9.00;98.60
20057;DHT22;10189;49.546;7.906;2023-12-29T10:53:31;9.00;98.30
20057;DHT22;10189;49.546;7.906;2023-12-29T10:55:57;8.90;98.10
20057;DHT22;10189;49.546;7.906;2023-12-29T10:58:26;8.90;98.10
20057;DHT22;10189;49.546;7.906;2023-12-29T11:01:01;8.90;98.10
20057;DHT22;10189;49.546;7.906;2023-12-29T11:03:27;8.80;97.90
20057;DHT22;10189;49.546;7.906;2023-12-29T11:05:59;8.80;98.30
20057;DHT22;10189;49.546;7.906;2023-12-29T11:08:28;8.80;98.30
20057;DHT22;10189;49.546;7.906;2023-12-29T11:10:54;8.80;98.70
20057;DHT22;10189;49.546;7.906;2023-12-29T11:13:21;8.90;98.80
20057;DHT22;10189;49.546;7.906;2023-12-29T11:15:47;9.00;97.40
20057;DHT22;10189;49.546;7.906;2023-12-29T11:18:17;9.00;97.40
20057;DHT22;10189;49.546;7.906;2023-12-29T11:20:45;9.00;96.70
20057;DHT22;10189;49.546;7.906;2023-12-29T11:23:12;9.00;97.10
20057;DHT22;10189;49.546;7.906;2023-12-29T11:25:44;9.00;96.70
20057;DHT22;10189;49.546;7.906;2023-12-29T11:28:14;8.90;96.90
20057;DHT22;10189;49.546;7.906;2023-12-29T11:30:40;8.90;98.00
20057;DHT22;10189;49.546;7.906;2023-12-29T11:33:10;8.90;98.40
20057;DHT22;10189;49.546;7.906;2023-12-29T11:35:56;8.90;98.00
20057;DHT22;10189;49.546;7.906;2023-12-29T11:44:28;9.10;96.80
20057;DHT22;10189;49.546;7.906;2023-12-29T11:46:56;9.10;97.00
20057;DHT22;10189;49.546;7.906;2023-12-29T11:49:25;9.20;96.80
20057;DHT22;10189;49.546;7.906;2023-12-29T11:51:52;9.30;97.30
20057;DHT22;10189;49.546;7.906;2023-12-29T11:54:25;9.30;96.20
20057;DHT22;10189;49.546;7.906;2023-12-29T11:56:55;9.30;96.50
20057;DHT22;10189;49.546;7.906;2023-12-29T11:59:25;9.30;96.40
20057;DHT22;10189;49.546;7.906;2023-12-29T12:01:53;9.40;96.40
20057;DHT22;10189;49.546;7.906;2023-12-29T12:04:42;9.40;96.70
20057;DHT22;10189;49.546;7.906;2023-12-29T12:09:49;9.40;97.80
20057;DHT22;10189;49.546;7.906;2023-12-29T12:12:40;9.40;97.60
20057;DHT22;10189;49.546;7.906;2023-12-29T12:17:52;9.40;97.60
20057;DHT22;10189;49.546;7.906;2023-12-29T12:20:18;9.30;97.80
20057;DHT22;10189;49.546;7.906;2023-12-29T12:22:56;9.30;98.00
20057;DHT22;10189;49.546;7.906;2023-12-29T12:25:28;9.20;99.20
20057;DHT22;10189;49.546;7.906;2023-12-29T12:27:56;9.10;99.90
20057;DHT22;10189;49.546;7.906;2023-12-29T12:30:23;9.00;99.90
20057;DHT22;10189;49.546;7.906;2023-12-29T12:32:58;8.90;99.90
20057;DHT22;10189;49.546;7.906;2023-12-29T12:35:25;8.90;99.90
20057;DHT22;10189;49.546;7.906;2023-12-29T12:38:16;8.70;99.90
20057;DHT22;10189;49.546;7.906;2023-12-29T12:40:50;8.50;99.90
20057;DHT22;10189;49.546;7.906;2023-12-29T12:43:16;8.40;99.90
20057;DHT22;10189;49.546;7.906;2023-12-29T12:46:03;8.30;99.90
20057;DHT22;10189;49.546;7.906;2023-12-29T12:48:40;8.30;99.90
20057;DHT22;10189;49.546;7.906;2023-12-29T12:51:09;8.30;99.90
20057;DHT22;10189;49.546;7.906;2023-12-29T12:53:42;8.20;99.90
20057;DHT22;10189;49.546;7.906;2023-12-29T12:56:13;8.20;99.90
20057;DHT22;10189;49.546;7.906;2023-12-29T12:58:40;8.20;99.90
20057;DHT22;10189;49.546;7.906;2023-12-29T13:01:07;8.20;99.90
20057;DHT22;10189;49.546;7.906;2023-12-29T13:03:33;8.20;99.90
20057;DHT22;10189;49.546;7.906;2023-12-29T13:06:02;8.10;99.90
20057;DHT22;10189;49.546;7.906;2023-12-29T13:08:30;8.00;99.90
20057;DHT22;10189;49.546;7.906;2023-12-29T13:10:58;7.90;99.90
20057;DHT22;10189;49.546;7.906;2023-12-29T13:13:46;8.00;99.90
20057;DHT22;10189;49.546;7.906;2023-12-29T13:16:12;8.10;99.90
20057;DHT22;10189;49.546;7.906;2023-12-29T13:18:39;8.20;99.90
20057;DHT22;10189;49.546;7.906;2023-12-29T13:21:06;8.30;99.90
20057;DHT22;10189;49.546;7.906;2023-12-29T13:23:32;8.30;99.90
20057;DHT22;10189;49.546;7.906;2023-12-29T13:26:04;8.30;99.90
20057;DHT22;10189;49.546;7.906;2023-12-29T13:28:36;8.40;99.90
20057;DHT22;10189;49.546;7.906;2023-12-29T13:31:03;8.50;99.90
20057;DHT22;10189;49.546;7.906;2023-12-29T13:36:24;8.50;99.90
20057;DHT22;10189;49.546;7.906;2023-12-29T13:39:12;8.50;99.90
20057;DHT22;10189;49.546;7.906;2023-12-29T13:41:49;8.50;99.90
20057;DHT22;10189;49.546;7.906;2023-12-29T13:44:16;8.50;99.90
20057;DHT22;10189;49.546;7.906;2023-12-29T13:46:45;8.40;99.90
20057;DHT22;10189;49.546;7.906;2023-12-29T13:49:12;8.40;99.90
20057;DHT22;10189;49.546;7.906;2023-12-29T13:51:41;8.40;99.90
20057;DHT22;10189;49.546;7.906;2023-12-29T13:54:07;8.30;99.90
20057;DHT22;10189;49.546;7.906;2023-12-29T13:56:35;8.30;99.90
20057;DHT22;10189;49.546;7.906;2023-12-29T13:59:01;8.40;99.90
20057;DHT22;10189;49.546;7.906;2023-12-29T14:01:38;8.40;99.90
20057;DHT22;10189;49.546;7.906;2023-12-29T14:04:07;8.40;99.90
20057;DHT22;10189;49.546;7.906;2023-12-29T14:06:43;8.40;99.90
20057;DHT22;10189;49.546;7.906;2023-12-29T14:09:16;8.40;99.90
20057;DHT22;10189;49.546;7.906;2023-12-29T14:11:46;8.40;99.90
20057;DHT22;10189;49.546;7.906;2023-12-29T14:14:13;8.40;99.90
20057;DHT22;10189;49.546;7.906;2023-12-29T14:16:42;8.40;99.90
20057;DHT22;10189;49.546;7.906;2023-12-29T14:19:08;8.40;99.90
20057;DHT22;10189;49.546;7.906;2023-12-29T14:21:35;8.40;99.90
20057;DHT22;10189;49.546;7.906;2023-12-29T14:26:40;8.30;99.90
20057;DHT22;10189;49.546;7.906;2023-12-29T14:29:11;8.30;99.90
20057;DHT22;10189;49.546;7.906;2023-12-29T14:31:40;8.30;99.90
20057;DHT22;10189;49.546;7.906;2023-12-29T14:34:08;8.30;99.90
20057;DHT22;10189;49.546;7.906;2023-12-29T14:36:35;8.30;99.90
20057;DHT22;10189;49.546;7.906;2023-12-29T14:39:03;8.30;99.90
20057;DHT22;10189;49.546;7.906;2023-12-29T14:41:30;8.30;99.90
20057;DHT22;10189;49.546;7.906;2023-12-29T14:43:56;8.30;99.90
20057;DHT22;10189;49.546;7.906;2023-12-29T14:46:22;8.30;99.90
20057;DHT22;10189;49.546;7.906;2023-12-29T14:48:49;8.30;99.90
20057;DHT22;10189;49.546;7.906;2023-12-29T14:51:16;8.20;99.90
20057;DHT22;10189;49.546;7.906;2023-12-29T14:53:46;8.20;99.90
20057;DHT22;10189;49.546;7.906;2023-12-29T14:56:14;8.20;99.90
20057;DHT22;10189;49.546;7.906;2023-12-29T14:58:41;8.20;99.90
20057;DHT22;10189;49.546;7.906;2023-12-29T15:01:08;8.20;99.90
20057;DHT22;10189;49.546;7.906;2023-12-29T15:03:35;8.10;99.90
20057;DHT22;10189;49.546;7.906;2023-12-29T15:06:02;8.10;99.90
20057;DHT22;10189;49.546;7.906;2023-12-29T15:08:29;8.10;99.90
20057;DHT22;10189;49.546;7.906;2023-12-29T15:11:01;8.10;99.90
20057;DHT22;10189;49.546;7.906;2023-12-29T15:13:28;8.10;99.90
20057;DHT22;10189;49.546;7.906;2023-12-29T15:15:58;8.10;99.90
20057;DHT22;10189;49.546;7.906;2023-12-29T15:18:26;8.00;99.90
20057;DHT22;10189;49.546;7.906;2023-12-29T15:20:53;8.10;99.90
20057;DHT22;10189;49.546;7.906;2023-12-29T15:23:19;8.00;99.90
20057;DHT22;10189;49.546;7.906;2023-12-29T15:25:45;8.00;99.90
20057;DHT22;10189;49.546;7.906;2023-12-29T15:28:11;8.00;99.90
20057;DHT22;10189;49.546;7.906;2023-12-29T15:30:37;8.00;99.90
20057;DHT22;10189;49.546;7.906;2023-12-29T15:33:03;8.00;99.90
20057;DHT22;10189;49.546;7.906;2023-12-29T15:35:29;8.00;99.90
20057;DHT22;10189;49.546;7.906;2023-12-29T15:37:55;8.00;99.90
20057;DHT22;10189;49.546;7.906;2023-12-29T15:40:21;8.00;99.90
20057;DHT22;10189;49.546;7.906;2023-12-29T15:42:47;8.00;99.90
20057;DHT22;10189;49.546;7.906;2023-12-29T15:45:14;8.00;99.90
20057;DHT22;10189;49.546;7.906;2023-12-29T15:47:42;8.00;99.90
20057;DHT22;10189;49.546;7.906;2023-12-29T15:50:08;8.00;99.90
20057;DHT22;10189;49.546;7.906;2023-12-29T15:52:34;7.90;99.90
20057;DHT22;10189;49.546;7.906;2023-12-29T15:55:00;7.90;99.90
20057;DHT22;10189;49.546;7.906;2023-12-29T15:57:25;7.90;99.90
20057;DHT22;10189;49.546;7.906;2023-12-29T15:59:52;7.90;99.90
20057;DHT22;10189;49.546;7.906;2023-12-29T16:02:17;7.90;99.90
20057;DHT22;10189;49.546;7.906;2023-12-29T16:04:44;7.90;99.90
20057;DHT22;10189;49.546;7.906;2023-12-29T16:07:10;7.90;99.90
20057;DHT22;10189;49.546;7.906;2023-12-29T16:09:35;7.90;99.90
20057;DHT22;10189;49.546;7.906;2023-12-29T16:12:02;7.90;99.90